No particular awareness of the weather is required.    There are no Weather-warnings


Meteo18 Weather Cam more information Meteo18 Weather Cam


Thunder radar more information blitzortung!


Rain radar more information rain snow radar


Visit our other weather sites:

Template documentation
and downloads

And another site



Weather Underground History page Text

Daily Summary for January 1, 2017 Units:  Both    English   Metric
« Previous Day
Next Day »
Daily Weekly Monthly Yearly Custom
  High: Low: Average:
Temperature: TemperatureC °F /  -17.8 °C -3.6 °F /  -19.8 °C -1.5 °F /  -18.6 °C
Dew Point: DewpointC °F /  -17.8 °C -4.1 °F /  -20.1 °C -1.9 °F /  -18.8 °C
Humidity: Humidity % 96 % 97 %
Wind Speed: WindSpeedKMH mph /  0 km/h - 1.3 mph /  2.1 km/h
Wind Gust: WindSpeedGustKMH mph /  0 km/h - -
Wind:- - SW
Pressure: PressurehPa in /  0 hPa 1022.2 in /  34611.7 hPa -
Precipitation: 0.0 in /  0 mm    
Historical Graphs
 
 
Tabular Data for January 1, 2017
Time Temperature Dew Point Pressure Wind Wind Speed Wind Gust Humidity Rainfall Rate (Hourly)
TemperatureC °F /  -17.8 °C DewpointC °F /  -17.8 °C PressurehPa in /  0 hPa Calm     Humidity % HourlyPrecipMM in /  0 mm
00:02 -2.9 °F /  -19.4 °C -3.3 °F /  -19.6 °C 1030.0 in /  34875.8 hPa Calm   4.8 mph /  7.7 km/h 97 % 0.0 in /  0 mm
00:12 -2.9 °F /  -19.4 °C -3.3 °F /  -19.6 °C 1029.7 in /  34865.6 hPa Calm   3.2 mph /  5.1 km/h 97 % 0.0 in /  0 mm
00:17 -2.9 °F /  -19.4 °C -3.3 °F /  -19.6 °C 1029.7 in /  34865.6 hPa SSE 1.6 mph /  2.6 km/h 3.2 mph /  5.1 km/h 97 % 0.0 in /  0 mm
00:22 -2.8 °F /  -19.3 °C -3.2 °F /  -19.6 °C 1029.3 in /  34852.1 hPa Calm   3.2 mph /  5.1 km/h 97 % 0.0 in /  0 mm
00:27 -2.9 °F /  -19.4 °C -3.3 °F /  -19.6 °C 1029.3 in /  34852.1 hPa SSW 1.6 mph /  2.6 km/h 4.8 mph /  7.7 km/h 97 % 0.0 in /  0 mm
00:37 -2.9 °F /  -19.4 °C -3.3 °F /  -19.6 °C 1029.3 in /  34852.1 hPa Calm   4.8 mph /  7.7 km/h 97 % 0.0 in /  0 mm
00:42 -2.9 °F /  -19.4 °C -3.3 °F /  -19.6 °C 1029.3 in /  34852.1 hPa South 1.6 mph /  2.6 km/h 4.8 mph /  7.7 km/h 97 % 0.0 in /  0 mm
00:47 -2.9 °F /  -19.4 °C -3.3 °F /  -19.6 °C 1029.3 in /  34852.1 hPa SW 1.6 mph /  2.6 km/h 3.2 mph /  5.1 km/h 97 % 0.0 in /  0 mm
00:52 -2.8 °F /  -19.3 °C -3.2 °F /  -19.6 °C 1029.3 in /  34852.1 hPa Calm   3.2 mph /  5.1 km/h 97 % 0.0 in /  0 mm
00:57 -2.8 °F /  -19.3 °C -3.2 °F /  -19.6 °C 1029.0 in /  34841.9 hPa Calm   4.8 mph /  7.7 km/h 97 % 0.0 in /  0 mm
01:02 -2.8 °F /  -19.3 °C -3.2 °F /  -19.6 °C 1029.0 in /  34841.9 hPa SW 1.6 mph /  2.6 km/h 4.8 mph /  7.7 km/h 97 % 0.0 in /  0 mm
01:12 -3.1 °F /  -19.5 °C -3.6 °F /  -19.8 °C 1029.0 in /  34841.9 hPa Calm   3.2 mph /  5.1 km/h 96 % 0.0 in /  0 mm
01:17 -3.1 °F /  -19.5 °C -3.6 °F /  -19.8 °C 1029.0 in /  34841.9 hPa Calm   3.2 mph /  5.1 km/h 96 % 0.0 in /  0 mm
01:22 -3.1 °F /  -19.5 °C -3.6 °F /  -19.8 °C 1029.0 in /  34841.9 hPa SW 3.2 mph /  5.1 km/h 3.2 mph /  5.1 km/h 96 % 0.0 in /  0 mm
01:32 -3.2 °F /  -19.6 °C -3.7 °F /  -19.8 °C 1029.0 in /  34841.9 hPa Calm   4.8 mph /  7.7 km/h 96 % 0.0 in /  0 mm
01:37 -3.2 °F /  -19.6 °C -3.7 °F /  -19.8 °C 1028.7 in /  34831.8 hPa Calm   4.8 mph /  7.7 km/h 96 % 0.0 in /  0 mm
01:42 -3.1 °F /  -19.5 °C -3.5 °F /  -19.7 °C 1028.7 in /  34831.8 hPa Calm   4.8 mph /  7.7 km/h 97 % 0.0 in /  0 mm
01:47 -3.2 °F /  -19.6 °C -3.7 °F /  -19.8 °C 1028.7 in /  34831.8 hPa Calm   4.8 mph /  7.7 km/h 96 % 0.0 in /  0 mm
01:52 -3.2 °F /  -19.6 °C -3.7 °F /  -19.8 °C 1028.3 in /  34818.2 hPa SSW 1.6 mph /  2.6 km/h 4.8 mph /  7.7 km/h 96 % 0.0 in /  0 mm
01:57 -3.3 °F /  -19.6 °C -3.8 °F /  -19.9 °C 1028.3 in /  34818.2 hPa Calm   4.8 mph /  7.7 km/h 96 % 0.0 in /  0 mm
02:02 -3.4 °F /  -19.7 °C -3.9 °F /  -19.9 °C 1028.3 in /  34818.2 hPa Calm   3.2 mph /  5.1 km/h 96 % 0.0 in /  0 mm
02:07 -3.4 °F /  -19.7 °C -3.9 °F /  -19.9 °C 1028.3 in /  34818.2 hPa Calm   3.2 mph /  5.1 km/h 96 % 0.0 in /  0 mm
02:12 -3.5 °F /  -19.7 °C -4.0 °F /  -20 °C 1028.3 in /  34818.2 hPa Calm   1.6 mph /  2.6 km/h 96 % 0.0 in /  0 mm
02:17 -3.5 °F /  -19.7 °C -4.0 °F /  -20 °C 1028.3 in /  34818.2 hPa South 1.6 mph /  2.6 km/h 3.2 mph /  5.1 km/h 96 % 0.0 in /  0 mm
02:22 -3.6 °F /  -19.8 °C -4.1 °F /  -20.1 °C 1028.3 in /  34818.2 hPa Calm   3.2 mph /  5.1 km/h 96 % 0.0 in /  0 mm
02:27 -3.6 °F /  -19.8 °C -4.1 °F /  -20.1 °C 1028.0 in /  34808.1 hPa SE 1.6 mph /  2.6 km/h 4.8 mph /  7.7 km/h 96 % 0.0 in /  0 mm
02:32 -3.6 °F /  -19.8 °C -4.1 °F /  -20.1 °C 1028.0 in /  34808.1 hPa Calm   4.8 mph /  7.7 km/h 96 % 0.0 in /  0 mm
02:42 -3.6 °F /  -19.8 °C -4.1 °F /  -20.1 °C 1028.0 in /  34808.1 hPa SE 1.6 mph /  2.6 km/h 3.2 mph /  5.1 km/h 96 % 0.0 in /  0 mm
02:47 -3.6 °F /  -19.8 °C -4.1 °F /  -20.1 °C 1028.0 in /  34808.1 hPa WSW 1.6 mph /  2.6 km/h 3.2 mph /  5.1 km/h 96 % 0.0 in /  0 mm
02:52 -3.6 °F /  -19.8 °C -4.1 °F /  -20.1 °C 1028.0 in /  34808.1 hPa Calm   3.2 mph /  5.1 km/h 96 % 0.0 in /  0 mm
02:57 -3.6 °F /  -19.8 °C -4.1 °F /  -20.1 °C 1028.0 in /  34808.1 hPa Calm   3.2 mph /  5.1 km/h 96 % 0.0 in /  0 mm
03:02 -3.6 °F /  -19.8 °C -4.1 °F /  -20.1 °C 1028.0 in /  34808.1 hPa Calm   1.6 mph /  2.6 km/h 96 % 0.0 in /  0 mm
03:07 -3.6 °F /  -19.8 °C -4.1 °F /  -20.1 °C 1027.7 in /  34797.9 hPa Calm   1.6 mph /  2.6 km/h 96 % 0.0 in /  0 mm
03:12 -3.5 °F /  -19.7 °C -4.0 °F /  -20 °C 1027.7 in /  34797.9 hPa SSW 1.6 mph /  2.6 km/h 1.6 mph /  2.6 km/h 96 % 0.0 in /  0 mm
03:17 -3.4 °F /  -19.7 °C -3.9 °F /  -19.9 °C 1027.7 in /  34797.9 hPa Calm   1.6 mph /  2.6 km/h 96 % 0.0 in /  0 mm
03:22 -3.4 °F /  -19.7 °C -3.9 °F /  -19.9 °C 1027.7 in /  34797.9 hPa Calm   1.6 mph /  2.6 km/h 96 % 0.0 in /  0 mm
03:27 -3.3 °F /  -19.6 °C -3.7 °F /  -19.8 °C 1027.7 in /  34797.9 hPa SW 1.6 mph /  2.6 km/h 1.6 mph /  2.6 km/h 97 % 0.0 in /  0 mm
03:32 -3.3 °F /  -19.6 °C -3.7 °F /  -19.8 °C 1027.3 in /  34784.4 hPa Calm   1.6 mph /  2.6 km/h 97 % 0.0 in /  0 mm
03:37 -3.2 °F /  -19.6 °C -3.6 °F /  -19.8 °C 1027.3 in /  34784.4 hPa SW 1.6 mph /  2.6 km/h 1.6 mph /  2.6 km/h 97 % 0.0 in /  0 mm
03:42 -3.2 °F /  -19.6 °C -3.6 °F /  -19.8 °C 1027.3 in /  34784.4 hPa Calm   1.6 mph /  2.6 km/h 97 % 0.0 in /  0 mm
03:47 -3.1 °F /  -19.5 °C -3.5 °F /  -19.7 °C 1027.3 in /  34784.4 hPa Calm   1.6 mph /  2.6 km/h 97 % 0.0 in /  0 mm
03:52 -3.1 °F /  -19.5 °C -3.5 °F /  -19.7 °C 1027.3 in /  34784.4 hPa Calm   1.6 mph /  2.6 km/h 97 % 0.0 in /  0 mm
03:57 -2.9 °F /  -19.4 °C -3.3 °F /  -19.6 °C 1027.0 in /  34774.2 hPa Calm   1.6 mph /  2.6 km/h 97 % 0.0 in /  0 mm
04:02 -2.9 °F /  -19.4 °C -3.3 °F /  -19.6 °C 1027.0 in /  34774.2 hPa SW 1.6 mph /  2.6 km/h 1.6 mph /  2.6 km/h 97 % 0.0 in /  0 mm
04:07 -2.8 °F /  -19.3 °C -3.2 °F /  -19.6 °C 1027.0 in /  34774.2 hPa Calm   1.6 mph /  2.6 km/h 97 % 0.0 in /  0 mm
04:12 -2.8 °F /  -19.3 °C -3.2 °F /  -19.6 °C 1027.0 in /  34774.2 hPa Calm   1.6 mph /  2.6 km/h 97 % 0.0 in /  0 mm
04:17 -2.8 °F /  -19.3 °C -3.2 °F /  -19.6 °C 1027.0 in /  34774.2 hPa SW 1.6 mph /  2.6 km/h 1.6 mph /  2.6 km/h 97 % 0.0 in /  0 mm
04:22 -2.7 °F /  -19.3 °C -3.1 °F /  -19.5 °C 1026.6 in /  34760.7 hPa Calm   1.6 mph /  2.6 km/h 97 % 0.0 in /  0 mm
04:27 -2.7 °F /  -19.3 °C -3.1 °F /  -19.5 °C 1026.6 in /  34760.7 hPa Calm   1.6 mph /  2.6 km/h 97 % 0.0 in /  0 mm
04:32 -2.7 °F /  -19.3 °C -3.1 °F /  -19.5 °C 1026.6 in /  34760.7 hPa Calm   1.6 mph /  2.6 km/h 97 % 0.0 in /  0 mm
04:37 -2.7 °F /  -19.3 °C -3.1 °F /  -19.5 °C 1026.6 in /  34760.7 hPa Calm     97 % 0.0 in /  0 mm
04:42 -2.7 °F /  -19.3 °C -3.1 °F /  -19.5 °C 1026.6 in /  34760.7 hPa Calm     97 % 0.0 in /  0 mm
04:47 -2.7 °F /  -19.3 °C -3.1 °F /  -19.5 °C 1026.6 in /  34760.7 hPa WSW 1.6 mph /  2.6 km/h 1.6 mph /  2.6 km/h 97 % 0.0 in /  0 mm
04:52 -2.7 °F /  -19.3 °C -3.1 °F /  -19.5 °C 1026.6 in /  34760.7 hPa Calm   1.6 mph /  2.6 km/h 97 % 0.0 in /  0 mm
04:57 -2.7 °F /  -19.3 °C -3.1 °F /  -19.5 °C 1026.6 in /  34760.7 hPa Calm   3.2 mph /  5.1 km/h 97 % 0.0 in /  0 mm
05:02 -2.7 °F /  -19.3 °C -3.1 °F /  -19.5 °C 1026.6 in /  34760.7 hPa WSW 1.6 mph /  2.6 km/h 3.2 mph /  5.1 km/h 97 % 0.0 in /  0 mm
05:12 -2.6 °F /  -19.2 °C -3.0 °F /  -19.4 °C 1026.6 in /  34760.7 hPa SW 1.6 mph /  2.6 km/h 3.2 mph /  5.1 km/h 97 % 0.0 in /  0 mm
05:17 -2.6 °F /  -19.2 °C -3.0 °F /  -19.4 °C 1026.3 in /  34750.5 hPa Calm   3.2 mph /  5.1 km/h 97 % 0.0 in /  0 mm
05:27 -2.7 °F /  -19.3 °C -3.1 °F /  -19.5 °C 1026.3 in /  34750.5 hPa WSW 3.2 mph /  5.1 km/h 3.2 mph /  5.1 km/h 97 % 0.0 in /  0 mm
05:32 -2.6 °F /  -19.2 °C -3.0 °F /  -19.4 °C 1026.3 in /  34750.5 hPa SW 3.2 mph /  5.1 km/h 3.2 mph /  5.1 km/h 97 % 0.0 in /  0 mm
05:37 -2.6 °F /  -19.2 °C -3.0 °F /  -19.4 °C 1026.3 in /  34750.5 hPa Calm   4.8 mph /  7.7 km/h 97 % 0.0 in /  0 mm
05:42 -2.6 °F /  -19.2 °C -3.0 °F /  -19.4 °C 1026.3 in /  34750.5 hPa Calm   4.8 mph /  7.7 km/h 97 % 0.0 in /  0 mm
05:47 -2.6 °F /  -19.2 °C -3.0 °F /  -19.4 °C 1026.3 in /  34750.5 hPa SSW 1.6 mph /  2.6 km/h 3.2 mph /  5.1 km/h 97 % 0.0 in /  0 mm
05:52 -2.6 °F /  -19.2 °C -3.0 °F /  -19.4 °C 1026.3 in /  34750.5 hPa Calm   3.2 mph /  5.1 km/h 97 % 0.0 in /  0 mm
05:57 -2.6 °F /  -19.2 °C -3.0 °F /  -19.4 °C 1026.3 in /  34750.5 hPa Calm   3.2 mph /  5.1 km/h 97 % 0.0 in /  0 mm
06:02 -2.6 °F /  -19.2 °C -3.0 °F /  -19.4 °C 1026.3 in /  34750.5 hPa SW 1.6 mph /  2.6 km/h 3.2 mph /  5.1 km/h 97 % 0.0 in /  0 mm
06:07 -2.6 °F /  -19.2 °C -3.0 °F /  -19.4 °C 1026.3 in /  34750.5 hPa Calm   3.2 mph /  5.1 km/h 97 % 0.0 in /  0 mm
06:12 -2.6 °F /  -19.2 °C -3.0 °F /  -19.4 °C 1026.3 in /  34750.5 hPa SSW 1.6 mph /  2.6 km/h 3.2 mph /  5.1 km/h 97 % 0.0 in /  0 mm
06:17 -2.6 °F /  -19.2 °C -3.0 °F /  -19.4 °C 1026.3 in /  34750.5 hPa SW 1.6 mph /  2.6 km/h 3.2 mph /  5.1 km/h 97 % 0.0 in /  0 mm
06:22 -2.6 °F /  -19.2 °C -3.0 °F /  -19.4 °C 1026.0 in /  34740.4 hPa Calm   3.2 mph /  5.1 km/h 97 % 0.0 in /  0 mm
06:27 -2.6 °F /  -19.2 °C -3.0 °F /  -19.4 °C 1026.0 in /  34740.4 hPa SSW 3.2 mph /  5.1 km/h 3.2 mph /  5.1 km/h 97 % 0.0 in /  0 mm
06:32 -2.6 °F /  -19.2 °C -3.0 °F /  -19.4 °C 1026.0 in /  34740.4 hPa Calm   3.2 mph /  5.1 km/h 97 % 0.0 in /  0 mm
06:37 -2.6 °F /  -19.2 °C -3.0 °F /  -19.4 °C 1026.0 in /  34740.4 hPa SW 1.6 mph /  2.6 km/h 3.2 mph /  5.1 km/h 97 % 0.0 in /  0 mm
06:42 -2.7 °F /  -19.3 °C -3.1 °F /  -19.5 °C 1026.0 in /  34740.4 hPa SSW 1.6 mph /  2.6 km/h 3.2 mph /  5.1 km/h 97 % 0.0 in /  0 mm
06:47 -2.7 °F /  -19.3 °C -3.1 °F /  -19.5 °C 1026.0 in /  34740.4 hPa Calm   3.2 mph /  5.1 km/h 97 % 0.0 in /  0 mm
06:57 -2.7 °F /  -19.3 °C -3.1 °F /  -19.5 °C 1026.0 in /  34740.4 hPa Calm   3.2 mph /  5.1 km/h 97 % 0.0 in /  0 mm
07:02 -2.8 °F /  -19.3 °C -3.2 °F /  -19.6 °C 1025.6 in /  34726.8 hPa Calm   3.2 mph /  5.1 km/h 97 % 0.0 in /  0 mm
07:07 -2.8 °F /  -19.3 °C -3.2 °F /  -19.6 °C 1025.6 in /  34726.8 hPa Calm   3.2 mph /  5.1 km/h 97 % 0.0 in /  0 mm
07:12 -2.8 °F /  -19.3 °C -3.2 °F /  -19.6 °C 1025.6 in /  34726.8 hPa Calm   3.2 mph /  5.1 km/h 97 % 0.0 in /  0 mm
07:17 -2.8 °F /  -19.3 °C -3.2 °F /  -19.6 °C 1025.6 in /  34726.8 hPa Calm   3.2 mph /  5.1 km/h 97 % 0.0 in /  0 mm
07:22 -2.8 °F /  -19.3 °C -3.2 °F /  -19.6 °C 1025.6 in /  34726.8 hPa SSW 1.6 mph /  2.6 km/h 3.2 mph /  5.1 km/h 97 % 0.0 in /  0 mm
07:37 -2.7 °F /  -19.3 °C -3.1 °F /  -19.5 °C 1025.6 in /  34726.8 hPa SSW 1.6 mph /  2.6 km/h 3.2 mph /  5.1 km/h 97 % 0.0 in /  0 mm
07:47 -2.7 °F /  -19.3 °C -3.1 °F /  -19.5 °C 1025.3 in /  34716.7 hPa South 1.6 mph /  2.6 km/h 4.8 mph /  7.7 km/h 97 % 0.0 in /  0 mm
07:52 -2.7 °F /  -19.3 °C -3.1 °F /  -19.5 °C 1025.3 in /  34716.7 hPa SSW 1.6 mph /  2.6 km/h 4.8 mph /  7.7 km/h 97 % 0.0 in /  0 mm
07:57 -2.7 °F /  -19.3 °C -3.1 °F /  -19.5 °C 1025.3 in /  34716.7 hPa Calm   4.8 mph /  7.7 km/h 97 % 0.0 in /  0 mm
08:02 -2.7 °F /  -19.3 °C -3.1 °F /  -19.5 °C 1025.3 in /  34716.7 hPa SW 3.2 mph /  5.1 km/h 4.8 mph /  7.7 km/h 97 % 0.0 in /  0 mm
08:12 -2.7 °F /  -19.3 °C -3.1 °F /  -19.5 °C 1025.3 in /  34716.7 hPa Calm   4.8 mph /  7.7 km/h 97 % 0.0 in /  0 mm
08:17 -2.7 °F /  -19.3 °C -3.1 °F /  -19.5 °C 1025.3 in /  34716.7 hPa South 1.6 mph /  2.6 km/h 4.8 mph /  7.7 km/h 97 % 0.0 in /  0 mm
08:22 -2.6 °F /  -19.2 °C -3.0 °F /  -19.4 °C 1024.9 in /  34703.1 hPa SSW 1.6 mph /  2.6 km/h 4.8 mph /  7.7 km/h 97 % 0.0 in /  0 mm
08:27 -2.6 °F /  -19.2 °C -3.0 °F /  -19.4 °C 1024.9 in /  34703.1 hPa SW 1.6 mph /  2.6 km/h 4.8 mph /  7.7 km/h 97 % 0.0 in /  0 mm
08:32 -2.6 °F /  -19.2 °C -3.0 °F /  -19.4 °C 1025.3 in /  34716.7 hPa SW 1.6 mph /  2.6 km/h 4.8 mph /  7.7 km/h 97 % 0.0 in /  0 mm
08:37 -2.6 °F /  -19.2 °C -3.0 °F /  -19.4 °C 1025.3 in /  34716.7 hPa SSW 1.6 mph /  2.6 km/h 4.8 mph /  7.7 km/h 97 % 0.0 in /  0 mm
08:42 -2.6 °F /  -19.2 °C -3.0 °F /  -19.4 °C 1025.3 in /  34716.7 hPa SW 3.2 mph /  5.1 km/h 4.8 mph /  7.7 km/h 97 % 0.0 in /  0 mm
08:47 -2.6 °F /  -19.2 °C -3.0 °F /  -19.4 °C 1024.9 in /  34703.1 hPa WSW 1.6 mph /  2.6 km/h 4.8 mph /  7.7 km/h 97 % 0.0 in /  0 mm
08:52 -2.6 °F /  -19.2 °C -3.0 °F /  -19.4 °C 1025.3 in /  34716.7 hPa SW 1.6 mph /  2.6 km/h -1607.4 mph /  -2586.8 km/h 97 % 0.0 in /  0 mm
08:57 -2.6 °F /  -19.2 °C -3.0 °F /  -19.4 °C 1024.9 in /  34703.1 hPa SSW 1.6 mph /  2.6 km/h 4.8 mph /  7.7 km/h 97 % 0.0 in /  0 mm
09:02 -2.5 °F /  -19.2 °C -2.9 °F /  -19.4 °C 1024.9 in /  34703.1 hPa SSW 1.6 mph /  2.6 km/h 4.8 mph /  7.7 km/h 97 % 0.0 in /  0 mm
09:12 -2.4 °F /  -19.1 °C -2.8 °F /  -19.3 °C 1024.9 in /  34703.1 hPa SSE 4.8 mph /  7.7 km/h 6.4 mph /  10.3 km/h 97 % 0.0 in /  0 mm
09:17 -2.4 °F /  -19.1 °C -2.8 °F /  -19.3 °C 1024.9 in /  34703.1 hPa SW 4.8 mph /  7.7 km/h 8.0 mph /  12.9 km/h 97 % 0.0 in /  0 mm
09:22 -2.3 °F /  -19.1 °C -2.7 °F /  -19.3 °C 1024.9 in /  34703.1 hPa SW 6.4 mph /  10.3 km/h 8.0 mph /  12.9 km/h 97 % 0.0 in /  0 mm
09:27 -2.3 °F /  -19.1 °C -2.7 °F /  -19.3 °C 1024.9 in /  34703.1 hPa SSW 4.8 mph /  7.7 km/h 6.4 mph /  10.3 km/h 97 % 0.0 in /  0 mm
09:32 -2.3 °F /  -19.1 °C -2.7 °F /  -19.3 °C 1024.9 in /  34703.1 hPa SW 4.8 mph /  7.7 km/h 11.3 mph /  18.2 km/h 97 % 0.0 in /  0 mm
09:37 -2.3 °F /  -19.1 °C -2.7 °F /  -19.3 °C 1024.9 in /  34703.1 hPa SW 3.2 mph /  5.1 km/h 11.3 mph /  18.2 km/h 97 % 0.0 in /  0 mm
09:42 -2.3 °F /  -19.1 °C -2.7 °F /  -19.3 °C 1024.9 in /  34703.1 hPa SW 4.8 mph /  7.7 km/h 11.3 mph /  18.2 km/h 97 % 0.0 in /  0 mm
09:47 -2.3 °F /  -19.1 °C -2.7 °F /  -19.3 °C 1024.9 in /  34703.1 hPa WSW 1.6 mph /  2.6 km/h 8.0 mph /  12.9 km/h 97 % 0.0 in /  0 mm
09:52 -2.2 °F /  -19 °C -2.6 °F /  -19.2 °C 1024.9 in /  34703.1 hPa WSW 3.2 mph /  5.1 km/h 8.0 mph /  12.9 km/h 97 % 0.0 in /  0 mm
09:57 -2.2 °F /  -19 °C -2.6 °F /  -19.2 °C 1024.9 in /  34703.1 hPa SW 4.8 mph /  7.7 km/h 8.0 mph /  12.9 km/h 97 % 0.0 in /  0 mm
10:02 -2.2 °F /  -19 °C -2.6 °F /  -19.2 °C 1024.9 in /  34703.1 hPa SW 4.8 mph /  7.7 km/h 8.0 mph /  12.9 km/h 97 % 0.0 in /  0 mm
10:12 -2.1 °F /  -18.9 °C -2.5 °F /  -19.2 °C 1024.9 in /  34703.1 hPa SW 4.8 mph /  7.7 km/h 8.0 mph /  12.9 km/h 97 % 0.0 in /  0 mm
10:17 -2.0 °F /  -18.9 °C -2.4 °F /  -19.1 °C 1024.9 in /  34703.1 hPa SW 4.8 mph /  7.7 km/h 8.0 mph /  12.9 km/h 97 % 0.0 in /  0 mm
10:22 -1.9 °F /  -18.8 °C -2.3 °F /  -19.1 °C 1024.9 in /  34703.1 hPa SW 6.4 mph /  10.3 km/h 6.4 mph /  10.3 km/h 97 % 0.0 in /  0 mm
10:27 -1.9 °F /  -18.8 °C -2.3 °F /  -19.1 °C 1024.9 in /  34703.1 hPa SW 3.2 mph /  5.1 km/h 6.4 mph /  10.3 km/h 97 % 0.0 in /  0 mm
10:32 -1.8 °F /  -18.8 °C -2.2 °F /  -19 °C 1024.9 in /  34703.1 hPa Calm   6.4 mph /  10.3 km/h 97 % 0.0 in /  0 mm
10:37 -1.7 °F /  -18.7 °C -2.1 °F /  -18.9 °C 1024.9 in /  34703.1 hPa SW 1.6 mph /  2.6 km/h 6.4 mph /  10.3 km/h 97 % 0.0 in /  0 mm
10:42 -1.7 °F /  -18.7 °C -2.1 °F /  -18.9 °C 1024.6 in /  34693 hPa Calm   6.4 mph /  10.3 km/h 97 % 0.0 in /  0 mm
10:47 -1.6 °F /  -18.7 °C -2.0 °F /  -18.9 °C 1024.6 in /  34693 hPa SW 3.2 mph /  5.1 km/h 6.4 mph /  10.3 km/h 97 % 0.0 in /  0 mm
10:52 -1.6 °F /  -18.7 °C -2.0 °F /  -18.9 °C 1024.6 in /  34693 hPa SW 3.2 mph /  5.1 km/h 6.4 mph /  10.3 km/h 97 % 0.0 in /  0 mm
10:57 -1.5 °F /  -18.6 °C -1.9 °F /  -18.8 °C 1024.6 in /  34693 hPa SW 1.6 mph /  2.6 km/h 4.8 mph /  7.7 km/h 97 % 0.0 in /  0 mm
11:02 -1.4 °F /  -18.6 °C -1.8 °F /  -18.8 °C 1024.3 in /  34682.8 hPa Calm   4.8 mph /  7.7 km/h 97 % 0.0 in /  0 mm
11:07 -1.4 °F /  -18.6 °C -1.8 °F /  -18.8 °C 1024.3 in /  34682.8 hPa Calm   3.2 mph /  5.1 km/h 97 % 0.0 in /  0 mm
11:12 -1.3 °F /  -18.5 °C -1.7 °F /  -18.7 °C 1024.6 in /  34693 hPa South 1.6 mph /  2.6 km/h 3.2 mph /  5.1 km/h 97 % 0.0 in /  0 mm
11:17 -1.3 °F /  -18.5 °C -1.7 °F /  -18.7 °C 1024.3 in /  34682.8 hPa SSW 1.6 mph /  2.6 km/h 3.2 mph /  5.1 km/h 97 % 0.0 in /  0 mm
11:22 -1.2 °F /  -18.4 °C -1.6 °F /  -18.7 °C 1024.3 in /  34682.8 hPa South 1.6 mph /  2.6 km/h 3.2 mph /  5.1 km/h 97 % 0.0 in /  0 mm
11:32 -1.1 °F /  -18.4 °C -1.5 °F /  -18.6 °C 1024.3 in /  34682.8 hPa SW 1.6 mph /  2.6 km/h 4.8 mph /  7.7 km/h 97 % 0.0 in /  0 mm
11:42 -1.1 °F /  -18.4 °C -1.5 °F /  -18.6 °C 1024.3 in /  34682.8 hPa Calm   4.8 mph /  7.7 km/h 97 % 0.0 in /  0 mm
11:47 -1.1 °F /  -18.4 °C -1.5 °F /  -18.6 °C 1024.3 in /  34682.8 hPa WSW 1.6 mph /  2.6 km/h 3.2 mph /  5.1 km/h 97 % 0.0 in /  0 mm
11:57 -1.0 °F /  -18.3 °C -1.4 °F /  -18.6 °C 1024.3 in /  34682.8 hPa SSW 3.2 mph /  5.1 km/h 4.8 mph /  7.7 km/h 97 % 0.0 in /  0 mm
12:02 -0.9 °F /  -18.3 °C -1.3 °F /  -18.5 °C 1023.9 in /  34669.3 hPa SW 3.2 mph /  5.1 km/h 6.4 mph /  10.3 km/h 97 % 0.0 in /  0 mm
12:12 -0.8 °F /  -18.2 °C -1.2 °F /  -18.4 °C 1023.9 in /  34669.3 hPa Calm   6.4 mph /  10.3 km/h 97 % 0.0 in /  0 mm
12:17 -0.8 °F /  -18.2 °C -1.2 °F /  -18.4 °C 1023.9 in /  34669.3 hPa South 1.6 mph /  2.6 km/h 4.8 mph /  7.7 km/h 97 % 0.0 in /  0 mm
12:22 -0.8 °F /  -18.2 °C -1.2 °F /  -18.4 °C 1023.6 in /  34659.1 hPa SW 1.6 mph /  2.6 km/h 4.8 mph /  7.7 km/h 97 % 0.0 in /  0 mm
12:32 -0.7 °F /  -18.2 °C -1.1 °F /  -18.4 °C 1023.6 in /  34659.1 hPa SW 1.6 mph /  2.6 km/h 6.4 mph /  10.3 km/h 97 % 0.0 in /  0 mm
12:37 -0.7 °F /  -18.2 °C -1.1 °F /  -18.4 °C 1023.6 in /  34659.1 hPa SW 3.2 mph /  5.1 km/h 6.4 mph /  10.3 km/h 97 % 0.0 in /  0 mm
12:42 -0.7 °F /  -18.2 °C -1.1 °F /  -18.4 °C 1023.2 in /  34645.6 hPa SW 1.6 mph /  2.6 km/h 4.8 mph /  7.7 km/h 97 % 0.0 in /  0 mm
12:47 -0.7 °F /  -18.2 °C -1.1 °F /  -18.4 °C 1023.2 in /  34645.6 hPa SW 1.6 mph /  2.6 km/h 4.8 mph /  7.7 km/h 97 % 0.0 in /  0 mm
12:52 -0.7 °F /  -18.2 °C -1.1 °F /  -18.4 °C 1023.2 in /  34645.6 hPa SW 1.6 mph /  2.6 km/h 6.4 mph /  10.3 km/h 97 % 0.0 in /  0 mm
12:57 -0.7 °F /  -18.2 °C -1.1 °F /  -18.4 °C 1023.2 in /  34645.6 hPa WSW 1.6 mph /  2.6 km/h 6.4 mph /  10.3 km/h 97 % 0.0 in /  0 mm
13:02 -0.6 °F /  -18.1 °C -1.0 °F /  -18.3 °C 1023.2 in /  34645.6 hPa SSW 3.2 mph /  5.1 km/h 4.8 mph /  7.7 km/h 97 % 0.0 in /  0 mm
13:07 -0.6 °F /  -18.1 °C -1.0 °F /  -18.3 °C 1023.2 in /  34645.6 hPa SW 3.2 mph /  5.1 km/h 6.4 mph /  10.3 km/h 97 % 0.0 in /  0 mm
13:12 -0.6 °F /  -18.1 °C -1.0 °F /  -18.3 °C 1023.2 in /  34645.6 hPa SW 3.2 mph /  5.1 km/h 6.4 mph /  10.3 km/h 97 % 0.0 in /  0 mm
13:17 -0.6 °F /  -18.1 °C -1.0 °F /  -18.3 °C 1022.9 in /  34635.4 hPa SSE 1.6 mph /  2.6 km/h 6.4 mph /  10.3 km/h 97 % 0.0 in /  0 mm
13:27 -0.6 °F /  -18.1 °C -1.0 °F /  -18.3 °C 1022.9 in /  34635.4 hPa WSW 4.8 mph /  7.7 km/h 8.0 mph /  12.9 km/h 97 % 0.0 in /  0 mm
13:37 -0.6 °F /  -18.1 °C -1.0 °F /  -18.3 °C 1022.9 in /  34635.4 hPa Calm   8.0 mph /  12.9 km/h 97 % 0.0 in /  0 mm
13:42 -0.6 °F /  -18.1 °C -1.0 °F /  -18.3 °C 1022.9 in /  34635.4 hPa West 3.2 mph /  5.1 km/h 6.4 mph /  10.3 km/h 97 % 0.0 in /  0 mm
13:47 -0.5 °F /  -18.1 °C -0.9 °F /  -18.3 °C 1022.6 in /  34625.2 hPa SSW 1.6 mph /  2.6 km/h 6.4 mph /  10.3 km/h 97 % 0.0 in /  0 mm
13:57 -0.5 °F /  -18.1 °C -0.9 °F /  -18.3 °C 1022.6 in /  34625.2 hPa WSW 1.6 mph /  2.6 km/h 6.4 mph /  10.3 km/h 97 % 0.0 in /  0 mm
14:02 -0.4 °F /  -18 °C -0.8 °F /  -18.2 °C 1022.2 in /  34611.7 hPa SW 1.6 mph /  2.6 km/h 4.8 mph /  7.7 km/h 97 % 0.0 in /  0 mm
14:07 -0.4 °F /  -18 °C -0.8 °F /  -18.2 °C 1022.2 in /  34611.7 hPa SW 1.6 mph /  2.6 km/h 6.4 mph /  10.3 km/h 97 % 0.0 in /  0 mm
14:12 -0.4 °F /  -18 °C -0.8 °F /  -18.2 °C 1022.2 in /  34611.7 hPa SW 3.2 mph /  5.1 km/h 6.4 mph /  10.3 km/h 97 % 0.0 in /  0 mm
14:17 -0.4 °F /  -18 °C -0.8 °F /  -18.2 °C 1022.2 in /  34611.7 hPa WSW 1.6 mph /  2.6 km/h 6.4 mph /  10.3 km/h 97 % 0.0 in /  0 mm
14:27 -0.4 °F /  -18 °C -0.8 °F /  -18.2 °C 1022.2 in /  34611.7 hPa SSW 1.6 mph /  2.6 km/h 4.8 mph /  7.7 km/h 97 % 0.0 in /  0 mm
14:32 -0.3 °F /  -17.9 °C -0.6 °F /  -18.1 °C 1022.2 in /  34611.7 hPa WSW 1.6 mph /  2.6 km/h 6.4 mph /  10.3 km/h 98 % 0.0 in /  0 mm
14:37 -0.3 °F /  -17.9 °C -0.6 °F /  -18.1 °C 1022.2 in /  34611.7 hPa WSW 4.8 mph /  7.7 km/h 6.4 mph /  10.3 km/h 98 % 0.0 in /  0 mm
14:47 -0.3 °F /  -17.9 °C -0.6 °F /  -18.1 °C 1022.2 in /  34611.7 hPa SW 1.6 mph /  2.6 km/h 9.7 mph /  15.6 km/h 98 % 0.0 in /  0 mm
14:52 -0.3 °F /  -17.9 °C -0.6 °F /  -18.1 °C 1022.2 in /  34611.7 hPa SW 1.6 mph /  2.6 km/h 9.7 mph /  15.6 km/h 98 % 0.0 in /  0 mm
14:57 -0.3 °F /  -17.9 °C -0.7 °F /  -18.2 °C 1022.2 in /  34611.7 hPa WSW 6.4 mph /  10.3 km/h 11.3 mph /  18.2 km/h 97 % 0.0 in /  0 mm
15:07 -0.3 °F /  -17.9 °C -0.7 °F /  -18.2 °C 1022.2 in /  34611.7 hPa WNW 1.6 mph /  2.6 km/h 11.3 mph /  18.2 km/h 97 % 0.0 in /  0 mm
15:17 -0.4 °F /  -18 °C -0.8 °F /  -18.2 °C 1022.2 in /  34611.7 hPa West 3.2 mph /  5.1 km/h 11.3 mph /  18.2 km/h 97 % 0.0 in /  0 mm
15:22 -0.4 °F /  -18 °C -0.8 °F /  -18.2 °C 1022.2 in /  34611.7 hPa SW 4.8 mph /  7.7 km/h 11.3 mph /  18.2 km/h 97 % 0.0 in /  0 mm
15:27 -0.4 °F /  -18 °C -0.8 °F /  -18.2 °C 1022.2 in /  34611.7 hPa WSW 1.6 mph /  2.6 km/h 11.3 mph /  18.2 km/h 97 % 0.0 in /  0 mm
15:37 -0.4 °F /  -18 °C -0.8 °F /  -18.2 °C 1022.2 in /  34611.7 hPa WSW 3.2 mph /  5.1 km/h 6.4 mph /  10.3 km/h 97 % 0.0 in /  0 mm
15:42 -0.4 °F /  -18 °C -0.8 °F /  -18.2 °C 1022.2 in /  34611.7 hPa WSW 1.6 mph /  2.6 km/h 6.4 mph /  10.3 km/h 97 % 0.0 in /  0 mm
15:47 -0.4 °F /  -18 °C -0.8 °F /  -18.2 °C 1022.2 in /  34611.7 hPa Calm   6.4 mph /  10.3 km/h 97 % 0.0 in /  0 mm
15:52 -0.4 °F /  -18 °C -0.7 °F /  -18.2 °C 1022.2 in /  34611.7 hPa SW 1.6 mph /  2.6 km/h 6.4 mph /  10.3 km/h 98 % 0.0 in /  0 mm
15:57 -0.4 °F /  -18 °C -0.7 °F /  -18.2 °C 1022.2 in /  34611.7 hPa SW 3.2 mph /  5.1 km/h 6.4 mph /  10.3 km/h 98 % 0.0 in /  0 mm
16:02 -0.4 °F /  -18 °C -0.7 °F /  -18.2 °C 1022.2 in /  34611.7 hPa West 3.2 mph /  5.1 km/h 6.4 mph /  10.3 km/h 98 % 0.0 in /  0 mm
16:07 -0.4 °F /  -18 °C -0.7 °F /  -18.2 °C 1022.2 in /  34611.7 hPa West 1.6 mph /  2.6 km/h 6.4 mph /  10.3 km/h 98 % 0.0 in /  0 mm
16:12 -0.4 °F /  -18 °C -0.7 °F /  -18.2 °C 1022.2 in /  34611.7 hPa WNW 1.6 mph /  2.6 km/h 4.8 mph /  7.7 km/h 98 % 0.0 in /  0 mm
16:17 -0.4 °F /  -18 °C -0.7 °F /  -18.2 °C 1022.2 in /  34611.7 hPa SW 1.6 mph /  2.6 km/h 3.2 mph /  5.1 km/h 98 % 0.0 in /  0 mm
16:22 -0.4 °F /  -18 °C -0.7 °F /  -18.2 °C 1022.2 in /  34611.7 hPa SW 3.2 mph /  5.1 km/h 3.2 mph /  5.1 km/h 98 % 0.0 in /  0 mm
16:27 -0.5 °F /  -18.1 °C -0.8 °F /  -18.2 °C 1022.2 in /  34611.7 hPa WSW 4.8 mph /  7.7 km/h 6.4 mph /  10.3 km/h 98 % 0.0 in /  0 mm
16:32 -0.5 °F /  -18.1 °C -0.8 °F /  -18.2 °C 1022.2 in /  34611.7 hPa Calm   6.4 mph /  10.3 km/h 98 % 0.0 in /  0 mm
16:42 -0.5 °F /  -18.1 °C -0.8 °F /  -18.2 °C 1022.2 in /  34611.7 hPa West 3.2 mph /  5.1 km/h 8.0 mph /  12.9 km/h 98 % 0.0 in /  0 mm
16:47 -0.5 °F /  -18.1 °C -0.8 °F /  -18.2 °C 1022.2 in /  34611.7 hPa SW 4.8 mph /  7.7 km/h 8.0 mph /  12.9 km/h 98 % 0.0 in /  0 mm
16:53 -0.5 °F /  -18.1 °C -0.8 °F /  -18.2 °C 1022.2 in /  34611.7 hPa WSW 1.6 mph /  2.6 km/h 8.0 mph /  12.9 km/h 98 % 0.0 in /  0 mm
17:02 -0.4 °F /  -18 °C -0.7 °F /  -18.2 °C 1022.2 in /  34611.7 hPa SW 1.6 mph /  2.6 km/h 8.0 mph /  12.9 km/h 98 % 0.0 in /  0 mm
17:12 -0.3 °F /  -17.9 °C -0.6 °F /  -18.1 °C 1022.2 in /  34611.7 hPa Calm   6.4 mph /  10.3 km/h 98 % 0.0 in /  0 mm
17:22 -0.3 °F /  -17.9 °C -0.6 °F /  -18.1 °C 1022.2 in /  34611.7 hPa WSW 1.6 mph /  2.6 km/h 6.4 mph /  10.3 km/h 98 % 0.0 in /  0 mm
17:27 -0.2 °F /  -17.9 °C -0.5 °F /  -18.1 °C 1022.2 in /  34611.7 hPa WSW 1.6 mph /  2.6 km/h 4.8 mph /  7.7 km/h 98 % 0.0 in /  0 mm
17:32 -0.2 °F /  -17.9 °C -0.5 °F /  -18.1 °C 1022.2 in /  34611.7 hPa WSW 3.2 mph /  5.1 km/h 4.8 mph /  7.7 km/h 98 % 0.0 in /  0 mm
17:37 -0.2 °F /  -17.9 °C -0.5 °F /  -18.1 °C 1022.2 in /  34611.7 hPa WSW 1.6 mph /  2.6 km/h 4.8 mph /  7.7 km/h 98 % 0.0 in /  0 mm
17:42 -0.2 °F /  -17.9 °C -0.5 °F /  -18.1 °C 1022.2 in /  34611.7 hPa WSW 3.2 mph /  5.1 km/h 4.8 mph /  7.7 km/h 98 % 0.0 in /  0 mm
17:52 -0.2 °F /  -17.9 °C -0.5 °F /  -18.1 °C 1022.6 in /  34625.2 hPa WSW 1.6 mph /  2.6 km/h 4.8 mph /  7.7 km/h 98 % 0.0 in /  0 mm
17:57 -0.1 °F /  -17.8 °C -0.4 °F /  -18 °C 1022.6 in /  34625.2 hPa SW 1.6 mph /  2.6 km/h 4.8 mph /  7.7 km/h 98 % 0.0 in /  0 mm
18:02 -0.1 °F /  -17.8 °C -0.4 °F /  -18 °C 1022.6 in /  34625.2 hPa Calm   4.8 mph /  7.7 km/h 98 % 0.0 in /  0 mm
18:07 -0.1 °F /  -17.8 °C -0.4 °F /  -18 °C 1022.2 in /  34611.7 hPa SW 1.6 mph /  2.6 km/h 4.8 mph /  7.7 km/h 98 % 0.0 in /  0 mm
18:12 -0.1 °F /  -17.8 °C -0.4 °F /  -18 °C 1022.6 in /  34625.2 hPa Calm   4.8 mph /  7.7 km/h 98 % 0.0 in /  0 mm
18:17 -0.1 °F /  -17.8 °C -0.4 °F /  -18 °C 1022.2 in /  34611.7 hPa WSW 1.6 mph /  2.6 km/h 4.8 mph /  7.7 km/h 98 % 0.0 in /  0 mm
18:22 -0.1 °F /  -17.8 °C -0.4 °F /  -18 °C 1022.6 in /  34625.2 hPa WSW 1.6 mph /  2.6 km/h 4.8 mph /  7.7 km/h 98 % 0.0 in /  0 mm
18:27 -0.1 °F /  -17.8 °C -0.4 °F /  -18 °C 1022.2 in /  34611.7 hPa Calm   3.2 mph /  5.1 km/h 98 % 0.0 in /  0 mm
18:32 -0.1 °F /  -17.8 °C -0.4 °F /  -18 °C 1022.6 in /  34625.2 hPa Calm   3.2 mph /  5.1 km/h 98 % 0.0 in /  0 mm
18:37 -0.1 °F /  -17.8 °C -0.4 °F /  -18 °C 1022.2 in /  34611.7 hPa SW 1.6 mph /  2.6 km/h 3.2 mph /  5.1 km/h 98 % 0.0 in /  0 mm
18:42 -0.1 °F /  -17.8 °C -0.4 °F /  -18 °C 1022.6 in /  34625.2 hPa West 1.6 mph /  2.6 km/h 3.2 mph /  5.1 km/h 98 % 0.0 in /  0 mm
18:52 -0.1 °F /  -17.8 °C -0.4 °F /  -18 °C 1022.6 in /  34625.2 hPa WSW 1.6 mph /  2.6 km/h 4.8 mph /  7.7 km/h 98 % 0.0 in /  0 mm
18:57 0.0 °F /  -17.8 °C -0.3 °F /  -17.9 °C 1022.6 in /  34625.2 hPa Calm   4.8 mph /  7.7 km/h 98 % 0.0 in /  0 mm
19:02 -0.1 °F /  -17.8 °C -0.4 °F /  -18 °C 1022.6 in /  34625.2 hPa SW 3.2 mph /  5.1 km/h 4.8 mph /  7.7 km/h 98 % 0.0 in /  0 mm
19:07 0.0 °F /  -17.8 °C -0.3 °F /  -17.9 °C 1022.6 in /  34625.2 hPa WSW 1.6 mph /  2.6 km/h 4.8 mph /  7.7 km/h 98 % 0.0 in /  0 mm
19:12 0.0 °F /  -17.8 °C -0.3 °F /  -17.9 °C 1022.6 in /  34625.2 hPa SW 1.6 mph /  2.6 km/h 3.2 mph /  5.1 km/h 98 % 0.0 in /  0 mm
19:22 0.1 °F /  -17.7 °C -0.2 °F /  -17.9 °C 1022.6 in /  34625.2 hPa WSW 3.2 mph /  5.1 km/h 3.2 mph /  5.1 km/h 98 % 0.0 in /  0 mm
19:32 0.1 °F /  -17.7 °C -0.2 °F /  -17.9 °C 1022.6 in /  34625.2 hPa Calm   4.8 mph /  7.7 km/h 98 % 0.0 in /  0 mm
19:37 0.1 °F /  -17.7 °C -0.2 °F /  -17.9 °C 1022.6 in /  34625.2 hPa Calm   4.8 mph /  7.7 km/h 98 % 0.0 in /  0 mm
19:42 0.1 °F /  -17.7 °C -0.2 °F /  -17.9 °C 1022.6 in /  34625.2 hPa Calm   3.2 mph /  5.1 km/h 98 % 0.0 in /  0 mm
19:52 0.1 °F /  -17.7 °C -0.2 °F /  -17.9 °C 1022.9 in /  34635.4 hPa WSW 1.6 mph /  2.6 km/h 3.2 mph /  5.1 km/h 98 % 0.0 in /  0 mm
19:57 0.1 °F /  -17.7 °C -0.2 °F /  -17.9 °C 1022.9 in /  34635.4 hPa Calm   1.6 mph /  2.6 km/h 98 % 0.0 in /  0 mm
20:02 0.1 °F /  -17.7 °C -0.2 °F /  -17.9 °C 1022.9 in /  34635.4 hPa Calm   1.6 mph /  2.6 km/h 98 % 0.0 in /  0 mm
20:12 0.2 °F /  -17.7 °C -0.1 °F /  -17.8 °C 1022.9 in /  34635.4 hPa Calm   1.6 mph /  2.6 km/h 98 % 0.0 in /  0 mm
20:17 0.2 °F /  -17.7 °C -0.1 °F /  -17.8 °C 1022.9 in /  34635.4 hPa Calm   1.6 mph /  2.6 km/h 98 % 0.0 in /  0 mm
20:22 0.2 °F /  -17.7 °C -0.1 °F /  -17.8 °C 1022.9 in /  34635.4 hPa Calm   4.8 mph /  7.7 km/h 98 % 0.0 in /  0 mm
20:32 0.1 °F /  -17.7 °C -0.2 °F /  -17.9 °C 1022.9 in /  34635.4 hPa Calm   4.8 mph /  7.7 km/h 98 % 0.0 in /  0 mm
20:37 0.0 °F /  -17.8 °C -0.3 °F /  -17.9 °C 1022.6 in /  34625.2 hPa Calm   3.2 mph /  5.1 km/h 98 % 0.0 in /  0 mm
20:42 0.0 °F /  -17.8 °C -0.3 °F /  -17.9 °C 1022.6 in /  34625.2 hPa Calm   1.6 mph /  2.6 km/h 98 % 0.0 in /  0 mm
20:52 0.0 °F /  -17.8 °C -0.3 °F /  -17.9 °C 1022.6 in /  34625.2 hPa Calm   1.6 mph /  2.6 km/h 98 % 0.0 in /  0 mm
20:57 0.0 °F /  -17.8 °C -0.3 °F /  -17.9 °C 1022.6 in /  34625.2 hPa Calm   1.6 mph /  2.6 km/h 98 % 0.0 in /  0 mm
21:02 -0.1 °F /  -17.8 °C -0.4 °F /  -18 °C 1022.6 in /  34625.2 hPa Calm   1.6 mph /  2.6 km/h 98 % 0.0 in /  0 mm
21:12 -0.1 °F /  -17.8 °C -0.4 °F /  -18 °C 1022.9 in /  34635.4 hPa Calm   1.6 mph /  2.6 km/h 98 % 0.0 in /  0 mm
21:17 -0.1 °F /  -17.8 °C -0.4 °F /  -18 °C 1022.9 in /  34635.4 hPa Calm     98 % 0.0 in /  0 mm
21:22 -0.1 °F /  -17.8 °C -0.4 °F /  -18 °C 1022.9 in /  34635.4 hPa Calm     98 % 0.0 in /  0 mm
21:27 -0.1 °F /  -17.8 °C -0.4 °F /  -18 °C 1022.9 in /  34635.4 hPa Calm     98 % 0.0 in /  0 mm
21:37 -0.1 °F /  -17.8 °C -0.4 °F /  -18 °C 1022.9 in /  34635.4 hPa Calm     98 % 0.0 in /  0 mm
21:42 -0.1 °F /  -17.8 °C -0.4 °F /  -18 °C 1022.9 in /  34635.4 hPa Calm     98 % 0.0 in /  0 mm
21:47 -0.2 °F /  -17.9 °C -0.5 °F /  -18.1 °C 1022.9 in /  34635.4 hPa Calm     98 % 0.0 in /  0 mm
21:57 -0.2 °F /  -17.9 °C -0.5 °F /  -18.1 °C 1022.9 in /  34635.4 hPa Calm     98 % 0.0 in /  0 mm
22:02 -0.2 °F /  -17.9 °C -0.5 °F /  -18.1 °C 1022.9 in /  34635.4 hPa Calm     98 % 0.0 in /  0 mm
22:07 -0.2 °F /  -17.9 °C -0.5 °F /  -18.1 °C 1022.9 in /  34635.4 hPa Calm     98 % 0.0 in /  0 mm
22:17 -0.2 °F /  -17.9 °C -0.5 °F /  -18.1 °C 1022.9 in /  34635.4 hPa Calm     98 % 0.0 in /  0 mm
22:22 -0.2 °F /  -17.9 °C -0.5 °F /  -18.1 °C 1022.9 in /  34635.4 hPa Calm     98 % 0.0 in /  0 mm
22:27 -0.2 °F /  -17.9 °C -0.5 °F /  -18.1 °C 1022.9 in /  34635.4 hPa Calm     98 % 0.0 in /  0 mm
22:37 -0.1 °F /  -17.8 °C -0.4 °F /  -18 °C 1022.9 in /  34635.4 hPa Calm     98 % 0.0 in /  0 mm
22:42 -0.1 °F /  -17.8 °C -0.4 °F /  -18 °C 1022.9 in /  34635.4 hPa Calm     98 % 0.0 in /  0 mm
22:47 -0.1 °F /  -17.8 °C -0.4 °F /  -18 °C 1022.9 in /  34635.4 hPa Calm     98 % 0.0 in /  0 mm
22:57 -0.1 °F /  -17.8 °C -0.4 °F /  -18 °C 1023.2 in /  34645.6 hPa Calm     98 % 0.0 in /  0 mm
23:07 -0.1 °F /  -17.8 °C -0.4 °F /  -18 °C 1022.9 in /  34635.4 hPa Calm     98 % 0.0 in /  0 mm
23:17 -0.1 °F /  -17.8 °C -0.4 °F /  -18 °C 1022.9 in /  34635.4 hPa Calm     98 % 0.0 in /  0 mm
23:22 -0.1 °F /  -17.8 °C -0.4 °F /  -18 °C 1022.9 in /  34635.4 hPa Calm     98 % 0.0 in /  0 mm
23:27 -0.1 °F /  -17.8 °C -0.4 °F /  -18 °C 1023.2 in /  34645.6 hPa Calm     98 % 0.0 in /  0 mm
23:32 -0.1 °F /  -17.8 °C -0.4 °F /  -18 °C 1023.2 in /  34645.6 hPa Calm     98 % 0.0 in /  0 mm
23:37 -0.1 °F /  -17.8 °C -0.4 °F /  -18 °C 1023.2 in /  34645.6 hPa Calm     98 % 0.0 in /  0 mm
23:42 -0.1 °F /  -17.8 °C -0.4 °F /  -18 °C 1023.2 in /  34645.6 hPa Calm     98 % 0.0 in /  0 mm
23:52 -0.1 °F /  -17.8 °C -0.4 °F /  -18 °C 1023.2 in /  34645.6 hPa Calm     98 % 0.0 in /  0 mm
23:57 -0.1 °F /  -17.8 °C -0.4 °F /  -18 °C 1023.2 in /  34645.6 hPa Calm     98 % 0.0 in /  0 mm
Meteo18
Compliments of Weather Underground - 4 mb

Script developed by  Jim McMurry - jmcmurry@mwt.net Adapted for the template by  Wim van der Kuil - Leuven-Template.eu

You find our weather info also at:

European Weather Network

Weather Underground

Equipment we use:

Weather-station
Davis Vue

Weather-program
Meteobridge

Weather-server
Raspberry PI 2 B+

Provider
1 and 1

Davis Vue

Meteobridge

Raspberry PI 2 B+

1 and 1